createdAt,value
2023-05-14T00:00:28.624Z,102149.91
2023-05-14T00:02:55.281Z,102144.84
2023-05-14T00:05:22.380Z,102141.41
2023-05-14T00:07:48.790Z,102145.00
2023-05-14T00:10:15.205Z,102137.25
2023-05-14T00:12:41.697Z,102133.03
2023-05-14T00:15:08.703Z,102130.56
2023-05-14T00:17:37.162Z,102132.44
2023-05-14T00:20:07.122Z,102130.91
2023-05-14T00:22:34.311Z,102123.41
2023-05-14T00:25:00.900Z,102131.25
2023-05-14T00:27:27.371Z,102120.94
2023-05-14T00:29:53.828Z,102113.16
2023-05-14T00:32:20.321Z,102121.31
2023-05-14T00:34:46.791Z,102120.63
2023-05-14T00:37:13.201Z,102111.22
2023-05-14T00:39:39.699Z,102107.91
2023-05-14T00:42:06.496Z,102106.13
2023-05-14T00:44:32.981Z,102113.28
2023-05-14T00:47:00.358Z,102108.03
2023-05-14T00:49:28.543Z,102103.75
2023-05-14T00:51:58.901Z,102101.19
2023-05-14T00:54:26.215Z,102096.19
2023-05-14T00:56:53.861Z,102087.53
2023-05-14T00:59:20.311Z,102085.84
2023-05-14T01:01:46.823Z,102094.78
2023-05-14T01:04:13.500Z,102092.50
2023-05-14T01:06:58.226Z,102087.34
2023-05-14T01:09:48.976Z,102095.34
2023-05-14T01:12:43.300Z,102097.28
2023-05-14T01:15:15.351Z,102095.59
2023-05-14T01:17:48.473Z,102092.47
2023-05-14T01:20:15.547Z,102087.38
2023-05-14T01:22:42.586Z,102092.69
2023-05-14T01:25:09.391Z,102086.63
2023-05-14T01:27:38.066Z,102089.56
2023-05-14T01:30:21.966Z,102087.88
2023-05-14T01:32:53.422Z,102093.34
2023-05-14T01:35:24.124Z,102093.34
2023-05-14T01:37:51.606Z,102090.06
2023-05-14T01:40:18.713Z,102093.69
2023-05-14T01:42:45.834Z,102087.69
2023-05-14T01:45:12.366Z,102078.44
2023-05-14T01:47:38.775Z,102087.28
2023-05-14T01:50:05.781Z,102073.44
2023-05-14T01:52:32.264Z,102082.19
2023-05-14T01:54:59.970Z,102084.03
2023-05-14T01:57:26.385Z,102085.16
2023-05-14T01:59:52.815Z,102075.75
2023-05-14T02:02:19.311Z,102067.91
2023-05-14T02:04:45.732Z,102070.78
2023-05-14T02:07:12.173Z,102067.41
2023-05-14T02:09:38.673Z,102061.31
2023-05-14T02:12:05.493Z,102058.78
2023-05-14T02:14:32.009Z,102055.38
2023-05-14T02:16:58.592Z,102056.50
2023-05-14T02:19:25.148Z,102050.56
2023-05-14T02:21:51.645Z,102060.25
2023-05-14T02:24:18.053Z,102060.31
2023-05-14T02:26:44.478Z,102071.69
2023-05-14T02:29:11.518Z,102067.38
2023-05-14T02:31:37.990Z,102064.81
2023-05-14T02:34:06.420Z,102064.19
2023-05-14T02:36:33.153Z,102053.78
2023-05-14T02:39:01.012Z,102060.91
2023-05-14T02:41:27.957Z,102056.69
2023-05-14T02:43:54.827Z,102048.97
2023-05-14T02:46:21.548Z,102051.63
2023-05-14T02:48:48.007Z,102049.94
2023-05-14T02:51:14.476Z,102046.63
2023-05-14T02:53:40.968Z,102042.31
2023-05-14T02:56:08.139Z,102045.91
2023-05-14T02:58:34.565Z,102042.50
2023-05-14T03:01:01.094Z,102046.09
2023-05-14T03:03:29.490Z,102048.78
2023-05-14T03:05:56.526Z,102046.28
2023-05-14T03:08:23.024Z,102045.59
2023-05-14T03:10:49.462Z,102041.47
2023-05-14T03:13:20.642Z,102043.22
2023-05-14T03:15:47.506Z,102039.97
2023-05-14T03:18:15.086Z,102042.75
2023-05-14T03:20:41.949Z,102041.91
2023-05-14T03:23:08.390Z,102048.91
2023-05-14T03:25:34.854Z,102045.47
2023-05-14T03:28:01.321Z,102043.81
2023-05-14T03:30:27.917Z,102045.63
2023-05-14T03:32:54.477Z,102047.41
2023-05-14T03:35:20.997Z,102054.13
2023-05-14T03:37:47.466Z,102042.84
2023-05-14T03:40:13.905Z,102039.50
2023-05-14T03:42:40.351Z,102041.31
2023-05-14T03:45:07.711Z,102039.81
2023-05-14T03:47:34.159Z,102042.38
2023-05-14T03:50:00.805Z,102047.72
2023-05-14T03:52:27.246Z,102040.72
2023-05-14T03:54:53.652Z,102030.53
2023-05-14T03:57:20.114Z,102029.69
2023-05-14T03:59:46.523Z,102034.16
2023-05-14T04:02:12.987Z,102032.44
2023-05-14T04:04:40.091Z,102023.69
2023-05-14T04:07:06.618Z,102023.75
2023-05-14T04:09:33.082Z,102021.97
2023-05-14T04:11:59.523Z,102028.03
2023-05-14T04:14:26.093Z,102021.97
2023-05-14T04:16:52.556Z,102021.13
2023-05-14T04:19:19.098Z,102017.59
2023-05-14T04:21:45.614Z,102021.13
2023-05-14T04:24:12.041Z,102030.03
2023-05-14T04:26:38.441Z,102024.78
2023-05-14T04:29:04.901Z,102023.03
2023-05-14T04:31:31.697Z,102025.59
2023-05-14T04:33:58.368Z,102024.00
2023-05-14T04:36:24.833Z,102022.09
2023-05-14T04:38:51.817Z,102023.75
2023-05-14T04:41:18.387Z,102030.66
2023-05-14T04:43:44.816Z,102023.69
2023-05-14T04:46:11.642Z,102024.47
2023-05-14T04:48:38.264Z,102022.69
2023-05-14T04:51:06.964Z,102024.47
2023-05-14T04:53:33.835Z,102031.34
2023-05-14T04:56:00.282Z,102022.53
2023-05-14T04:58:28.869Z,102023.97
2023-05-14T05:00:55.372Z,102034.03
2023-05-14T05:03:21.994Z,102029.56
2023-05-14T05:05:48.502Z,102038.94
2023-05-14T05:08:14.968Z,102027.50
2023-05-14T05:10:41.411Z,102027.41
2023-05-14T05:13:07.857Z,102028.94
2023-05-14T05:15:34.290Z,102031.47
2023-05-14T05:18:00.864Z,102029.44
2023-05-14T05:20:28.281Z,102038.78
2023-05-14T05:22:54.906Z,102032.56
2023-05-14T05:25:21.561Z,102031.38
2023-05-14T05:27:48.036Z,102033.72
2023-05-14T05:30:14.504Z,102036.22
2023-05-14T05:32:41.085Z,102037.94
2023-05-14T05:35:07.891Z,102038.47
2023-05-14T05:37:34.335Z,102042.50
2023-05-14T05:40:00.824Z,102029.28
2023-05-14T05:42:27.369Z,102031.13
2023-05-14T05:44:53.866Z,102035.50
2023-05-14T05:47:20.522Z,102032.19
2023-05-14T05:49:47.041Z,102038.47
2023-05-14T05:52:13.638Z,102043.97
2023-05-14T05:54:40.051Z,102049.28
2023-05-14T05:57:06.493Z,102040.56
2023-05-14T05:59:33.068Z,102037.09
2023-05-14T06:01:59.615Z,102043.31
2023-05-14T06:04:26.072Z,102043.25
2023-05-14T06:06:52.492Z,102051.59
2023-05-14T06:09:18.948Z,102050.63
2023-05-14T06:11:45.652Z,102040.97
2023-05-14T06:14:12.140Z,102042.16
2023-05-14T06:16:38.746Z,102057.00
2023-05-14T06:19:05.305Z,102055.81
2023-05-14T06:21:32.001Z,102036.50
2023-05-14T06:23:58.445Z,102038.75
2023-05-14T06:26:24.876Z,102052.22
2023-05-14T06:28:51.361Z,102057.97
2023-05-14T06:31:18.611Z,102064.75
2023-05-14T06:33:45.278Z,102045.28
2023-05-14T06:36:11.792Z,102055.25
2023-05-14T06:38:38.353Z,102050.13
2023-05-14T06:41:04.851Z,102052.94
2023-05-14T06:43:31.347Z,102044.22
2023-05-14T06:45:58.053Z,102053.84
2023-05-14T06:48:24.634Z,102059.16
2023-05-14T06:50:51.288Z,102042.75
2023-05-14T06:53:18.009Z,102041.41
2023-05-14T06:55:45.014Z,102040.06
2023-05-14T06:58:11.481Z,102031.50
2023-05-14T07:00:37.961Z,102038.53
2023-05-14T07:03:04.464Z,102034.59
2023-05-14T07:05:30.960Z,102026.94
2023-05-14T07:07:57.592Z,102039.28
2023-05-14T07:10:24.306Z,102035.03
2023-05-14T07:12:50.949Z,102030.00
2023-05-14T07:15:17.574Z,102043.31
2023-05-14T07:17:44.074Z,102039.00
2023-05-14T07:20:10.999Z,102041.28
2023-05-14T07:22:37.428Z,102033.25
2023-05-14T07:25:04.929Z,102036.91
2023-05-14T07:27:31.368Z,102033.00
2023-05-14T07:29:57.807Z,102032.41
2023-05-14T07:32:25.416Z,102036.47
2023-05-14T07:34:51.935Z,102041.06
2023-05-14T07:37:18.950Z,102034.38
2023-05-14T07:39:45.639Z,102033.94
2023-05-14T07:42:19.396Z,102032.84
2023-05-14T07:44:51.952Z,102026.59
2023-05-14T07:47:18.429Z,102032.66
2023-05-14T07:49:45.120Z,102027.91
2023-05-14T07:52:11.569Z,102023.03
2023-05-14T07:54:38.090Z,102024.59
2023-05-14T07:57:04.937Z,102016.47
2023-05-14T07:59:32.062Z,102019.59
2023-05-14T08:01:58.624Z,102023.19
2023-05-14T08:04:25.308Z,102018.69
2023-05-14T08:06:51.892Z,102028.63
2023-05-14T08:09:18.403Z,102019.81
2023-05-14T08:11:44.821Z,102024.88
2023-05-14T08:14:11.303Z,102015.88
2023-05-14T08:16:38.689Z,102014.03
2023-05-14T08:19:05.367Z,102013.72
2023-05-14T08:21:32.762Z,102017.13
2023-05-14T08:23:59.396Z,102020.25
2023-05-14T08:26:26.207Z,102020.91
2023-05-14T08:28:53.900Z,102013.59
2023-05-14T08:31:20.493Z,102019.25
2023-05-14T08:33:46.958Z,102014.94
2023-05-14T08:36:13.900Z,102004.50
2023-05-14T08:38:40.734Z,102010.44
2023-05-14T08:41:08.388Z,102005.22
2023-05-14T08:44:01.994Z,102012.41
2023-05-14T08:46:30.534Z,102003.75
2023-05-14T08:49:05.073Z,101989.03
2023-05-14T08:51:31.701Z,101988.94
2023-05-14T08:54:02.549Z,101989.59
2023-05-14T08:56:32.826Z,101993.22
2023-05-14T08:59:00.308Z,101994.91
2023-05-14T09:01:27.206Z,101997.22
2023-05-14T09:03:54.981Z,101992.53
2023-05-14T09:06:22.666Z,101985.06
2023-05-14T09:08:49.670Z,101986.13
2023-05-14T09:11:16.095Z,101989.91
2023-05-14T09:13:43.050Z,101986.69
2023-05-14T09:16:09.553Z,101984.94
2023-05-14T09:18:36.856Z,101981.66
2023-05-14T09:21:03.649Z,101977.03
2023-05-14T09:23:33.316Z,101971.91
2023-05-14T09:26:04.490Z,101973.75
2023-05-14T09:28:30.931Z,101969.31
2023-05-14T09:30:57.463Z,101975.94
2023-05-14T09:33:31.075Z,101968.91
2023-05-14T09:36:01.869Z,101964.16
2023-05-14T09:38:32.866Z,101968.06
2023-05-14T09:41:00.710Z,101963.41
2023-05-14T09:43:27.246Z,101956.63
2023-05-14T09:45:53.682Z,101953.81
2023-05-14T09:48:20.195Z,101954.97
2023-05-14T09:50:47.121Z,101958.88
2023-05-14T09:53:14.357Z,101959.38
2023-05-14T09:55:42.014Z,101953.81
2023-05-14T09:58:08.475Z,101950.41
2023-05-14T10:00:35.585Z,101949.13
2023-05-14T10:03:08.007Z,101950.69
2023-05-14T10:05:40.995Z,101944.63
2023-05-14T10:08:17.159Z,101940.97
2023-05-14T10:10:43.630Z,101945.50
2023-05-14T10:13:20.923Z,101950.78
2023-05-14T10:15:51.129Z,101944.56
2023-05-14T10:18:20.201Z,101945.59
2023-05-14T10:20:53.697Z,101938.56
2023-05-14T10:23:20.500Z,101941.94
2023-05-14T10:25:47.056Z,101942.28
2023-05-14T10:28:13.799Z,101940.31
2023-05-14T10:30:50.403Z,101928.47
2023-05-14T10:33:18.510Z,101926.94
2023-05-14T10:35:57.711Z,101933.50
2023-05-14T10:38:33.222Z,101929.28
2023-05-14T10:41:01.980Z,101935.59
2023-05-14T10:43:30.904Z,101929.03
2023-05-14T10:45:59.796Z,101922.56
2023-05-14T10:48:26.932Z,101918.13
2023-05-14T10:50:55.228Z,101916.72
2023-05-14T10:53:32.031Z,101917.63
2023-05-14T10:56:01.697Z,101907.78
2023-05-14T10:58:32.047Z,101908.88
2023-05-14T11:01:02.361Z,101913.78
2023-05-14T11:03:31.575Z,101903.22
2023-05-14T11:06:02.930Z,101897.91
2023-05-14T11:08:31.017Z,101898.44
2023-05-14T11:10:57.497Z,101900.59
2023-05-14T11:13:26.750Z,101898.34
2023-05-14T11:15:53.893Z,101899.28
2023-05-14T11:18:33.405Z,101892.09
2023-05-14T11:21:01.175Z,101892.09
2023-05-14T11:23:30.184Z,101884.84
2023-05-14T11:25:56.827Z,101886.06
2023-05-14T11:28:24.755Z,101880.78
2023-05-14T11:30:52.223Z,101888.56
2023-05-14T11:33:19.809Z,101876.78
2023-05-14T11:35:47.189Z,101875.94
2023-05-14T11:38:20.254Z,101871.25
2023-05-14T11:40:54.353Z,101866.78
2023-05-14T11:43:23.722Z,101865.06
2023-05-14T11:45:54.403Z,101865.31
2023-05-14T11:48:22.333Z,101862.06
2023-05-14T11:50:51.005Z,101862.31
2023-05-14T11:53:25.718Z,101862.56
2023-05-14T11:55:54.754Z,101863.06
2023-05-14T11:58:22.021Z,101861.25
2023-05-14T12:00:52.921Z,101863.63
2023-05-14T12:03:26.260Z,101856.38
2023-05-14T12:06:00.376Z,101860.84
2023-05-14T12:08:29.666Z,101852.41
2023-05-14T12:10:57.970Z,101855.50
2023-05-14T12:13:31.518Z,101849.03
2023-05-14T12:16:00.767Z,101837.75
2023-05-14T12:18:29.866Z,101840.84
2023-05-14T12:21:02.264Z,101839.94
2023-05-14T12:23:32.861Z,101838.78
2023-05-14T12:26:07.176Z,101834.00
2023-05-14T12:28:38.430Z,101830.13
2023-05-14T12:31:06.053Z,101835.25
2023-05-14T12:33:32.567Z,101827.38
2023-05-14T12:36:07.390Z,101825.88
2023-05-14T12:38:41.321Z,101825.00
2023-05-14T12:41:07.839Z,101824.31
2023-05-14T12:43:34.273Z,101818.66
2023-05-14T12:46:00.696Z,101816.25
2023-05-14T12:48:27.139Z,101819.75
2023-05-14T12:50:53.598Z,101815.31
2023-05-14T12:53:20.101Z,101817.50
2023-05-14T12:55:46.693Z,101812.50
2023-05-14T12:58:13.162Z,101799.97
2023-05-14T13:00:39.767Z,101797.44
2023-05-14T13:03:06.586Z,101805.91
2023-05-14T13:05:34.880Z,101804.41
2023-05-14T13:08:03.687Z,101799.25
2023-05-14T13:10:30.286Z,101797.31
2023-05-14T13:12:56.842Z,101803.63
2023-05-14T13:15:23.470Z,101801.53
2023-05-14T13:17:50.273Z,101800.03
2023-05-14T13:20:18.298Z,101794.09
2023-05-14T13:22:45.079Z,101788.06
2023-05-14T13:25:11.702Z,101791.69
2023-05-14T13:27:38.119Z,101796.56
2023-05-14T13:30:07.216Z,101787.75
2023-05-14T13:32:33.753Z,101786.81
2023-05-14T13:35:00.278Z,101789.94
2023-05-14T13:37:26.871Z,101781.44
2023-05-14T13:39:53.473Z,101788.13
2023-05-14T13:42:19.923Z,101781.56
2023-05-14T13:44:46.376Z,101783.78
2023-05-14T13:47:12.943Z,101779.34
2023-05-14T13:49:40.661Z,101779.06
2023-05-14T13:52:07.186Z,101775.28
2023-05-14T13:54:33.672Z,101769.84
2023-05-14T13:57:00.105Z,101770.97
2023-05-14T13:59:27.779Z,101763.09
2023-05-14T14:01:54.558Z,101765.63
2023-05-14T14:04:22.149Z,101759.22
2023-05-14T14:06:49.046Z,101762.44
2023-05-14T14:09:15.456Z,101766.22
2023-05-14T14:11:42.130Z,101756.97
2023-05-14T14:14:08.707Z,101757.53
2023-05-14T14:16:35.435Z,101761.59
2023-05-14T14:19:01.962Z,101758.69
2023-05-14T14:21:28.505Z,101758.53
2023-05-14T14:23:54.962Z,101746.91
2023-05-14T14:26:21.961Z,101745.53
2023-05-14T14:28:48.380Z,101749.28
2023-05-14T14:31:16.005Z,101747.88
2023-05-14T14:33:43.033Z,101751.81
2023-05-14T14:36:09.527Z,101749.69
2023-05-14T14:38:35.966Z,101745.09
2023-05-14T14:41:07.069Z,101737.25
2023-05-14T14:43:38.280Z,101738.25
2023-05-14T14:46:04.906Z,101739.38
2023-05-14T14:48:41.236Z,101739.81
2023-05-14T14:51:09.056Z,101743.41
2023-05-14T14:53:36.346Z,101742.88
2023-05-14T14:56:02.926Z,101740.66
2023-05-14T14:58:31.898Z,101739.66
2023-05-14T15:00:58.775Z,101748.03
2023-05-14T15:03:25.894Z,101732.13
2023-05-14T15:05:53.683Z,101737.28
2023-05-14T15:08:20.888Z,101738.94
2023-05-14T15:10:47.399Z,101738.53
2023-05-14T15:13:13.986Z,101729.59
2023-05-14T15:15:40.704Z,101732.78
2023-05-14T15:18:07.196Z,101729.72
2023-05-14T15:20:33.964Z,101733.91
2023-05-14T15:23:00.486Z,101725.81
2023-05-14T15:25:27.347Z,101723.84
2023-05-14T15:27:53.825Z,101725.66
2023-05-14T15:30:20.461Z,101726.50
2023-05-14T15:32:47.097Z,101724.00
2023-05-14T15:35:14.150Z,101729.16
2023-05-14T15:37:42.597Z,101717.03
2023-05-14T15:40:10.360Z,101710.00
2023-05-14T15:42:46.946Z,101715.75
2023-05-14T15:45:14.204Z,101712.81
2023-05-14T15:47:41.739Z,101708.59
2023-05-14T15:50:08.741Z,101706.50
2023-05-14T15:52:36.478Z,101710.00
2023-05-14T15:55:04.486Z,101705.84
2023-05-14T15:57:31.699Z,101698.13
2023-05-14T15:59:58.212Z,101699.50
2023-05-14T16:02:24.803Z,101701.44
2023-05-14T16:04:54.427Z,101706.47
2023-05-14T16:07:20.871Z,101704.91
2023-05-14T16:09:47.312Z,101713.00
2023-05-14T16:12:14.368Z,101707.41
2023-05-14T16:14:42.152Z,101707.81
2023-05-14T16:17:09.126Z,101716.34
2023-05-14T16:19:35.579Z,101708.78
2023-05-14T16:22:02.368Z,101709.78
2023-05-14T16:24:28.789Z,101713.00
2023-05-14T16:26:56.046Z,101712.97
2023-05-14T16:29:23.545Z,101710.53
2023-05-14T16:31:50.054Z,101709.00
2023-05-14T16:34:16.540Z,101709.53
2023-05-14T16:36:43.291Z,101709.41
2023-05-14T16:39:09.831Z,101714.81
2023-05-14T16:41:36.311Z,101703.09
2023-05-14T16:44:03.380Z,101708.88
2023-05-14T16:46:31.260Z,101707.94
2023-05-14T16:48:57.870Z,101710.28
2023-05-14T16:51:24.386Z,101714.75
2023-05-14T16:53:51.963Z,101712.63
2023-05-14T16:56:18.927Z,101717.22
2023-05-14T16:58:45.459Z,101718.31
2023-05-14T17:01:12.005Z,101723.63
2023-05-14T17:03:38.625Z,101720.13
2023-05-14T17:06:06.007Z,101729.69
2023-05-14T17:08:33.662Z,101733.81
2023-05-14T17:11:00.331Z,101729.75
2023-05-14T17:13:26.874Z,101727.03
2023-05-14T17:15:53.442Z,101720.91
2023-05-14T17:18:19.984Z,101732.13
2023-05-14T17:20:46.444Z,101726.97
2023-05-14T17:23:13.328Z,101732.19
2023-05-14T17:25:39.819Z,101726.06
2023-05-14T17:28:08.127Z,101727.09
2023-05-14T17:30:34.582Z,101738.53
2023-05-14T17:33:01.115Z,101731.69
2023-05-14T17:35:27.879Z,101736.63
2023-05-14T17:37:54.407Z,101735.09
2023-05-14T17:40:21.656Z,101736.03
2023-05-14T17:42:48.163Z,101738.66
2023-05-14T17:45:15.496Z,101732.19
2023-05-14T17:47:42.326Z,101727.63
2023-05-14T17:50:09.101Z,101732.41
2023-05-14T17:52:35.664Z,101750.28
2023-05-14T17:55:02.131Z,101739.94
2023-05-14T17:57:29.323Z,101742.06
2023-05-14T17:59:55.796Z,101746.28
2023-05-14T18:02:22.290Z,101749.28
2023-05-14T18:04:48.808Z,101757.31
2023-05-14T18:07:15.372Z,101766.19
2023-05-14T18:09:41.873Z,101755.50
2023-05-14T18:12:08.803Z,101756.38
2023-05-14T18:14:35.258Z,101749.13
2023-05-14T18:17:01.871Z,101763.06
2023-05-14T18:19:28.381Z,101763.78
2023-05-14T18:21:55.534Z,101768.34
2023-05-14T18:24:22.296Z,101765.81
2023-05-14T18:26:51.224Z,101762.22
2023-05-14T18:29:17.663Z,101776.47
2023-05-14T18:31:44.111Z,101763.16
2023-05-14T18:34:10.658Z,101768.16
2023-05-14T18:36:37.569Z,101770.53
2023-05-14T18:39:04.058Z,101781.63
2023-05-14T18:41:32.070Z,101774.69
2023-05-14T18:43:58.527Z,101782.41
2023-05-14T18:46:25.796Z,101778.88
2023-05-14T18:48:52.270Z,101785.16
2023-05-14T18:51:19.488Z,101784.72
2023-05-14T18:53:45.953Z,101781.81
2023-05-14T18:56:12.393Z,101796.44
2023-05-14T18:58:38.901Z,101793.06
2023-05-14T19:01:05.492Z,101789.38
2023-05-14T19:03:32.045Z,101788.03
2023-05-14T19:05:58.659Z,101789.47
2023-05-14T19:08:25.196Z,101790.31
2023-05-14T19:10:52.860Z,101789.06
2023-05-14T19:13:20.108Z,101794.53
2023-05-14T19:15:46.571Z,101793.16
2023-05-14T19:18:13.868Z,101791.03
2023-05-14T19:20:40.329Z,101794.81
2023-05-14T19:23:06.735Z,101791.66
2023-05-14T19:25:35.534Z,101794.38
2023-05-14T19:28:03.621Z,101795.09
2023-05-14T19:30:30.738Z,101790.31
2023-05-14T19:32:57.270Z,101798.03
2023-05-14T19:35:24.041Z,101788.03
2023-05-14T19:37:50.711Z,101792.84
2023-05-14T19:40:17.169Z,101793.13
2023-05-14T19:42:43.593Z,101796.53
2023-05-14T19:45:10.439Z,101797.31
2023-05-14T19:47:37.230Z,101795.06
2023-05-14T19:50:03.925Z,101794.34
2023-05-14T19:52:30.316Z,101782.78
2023-05-14T19:54:56.768Z,101793.19
2023-05-14T19:57:23.305Z,101787.59
2023-05-14T19:59:50.523Z,101784.38
2023-05-14T20:02:18.456Z,101791.31
2023-05-14T20:04:46.100Z,101796.56
2023-05-14T20:07:13.984Z,101788.88
2023-05-14T20:09:40.483Z,101791.81
2023-05-14T20:12:07.432Z,101786.94
2023-05-14T20:14:33.845Z,101786.94
2023-05-14T20:17:00.433Z,101788.81
2023-05-14T20:19:27.564Z,101792.00
2023-05-14T20:21:57.835Z,101788.56
2023-05-14T20:24:24.311Z,101782.22
2023-05-14T20:26:50.804Z,101777.53
2023-05-14T20:29:17.232Z,101779.41
2023-05-14T20:31:43.700Z,101784.66
2023-05-14T20:34:12.519Z,101775.00
2023-05-14T20:36:38.991Z,101773.38
2023-05-14T20:39:06.292Z,101774.81
2023-05-14T20:41:32.734Z,101771.34
2023-05-14T20:43:59.967Z,101770.69
2023-05-14T20:46:26.531Z,101764.56
2023-05-14T20:48:57.381Z,101772.44
2023-05-14T20:51:23.778Z,101764.84
2023-05-14T20:53:50.196Z,101766.53
2023-05-14T20:56:16.629Z,101766.81
2023-05-14T20:58:43.058Z,101771.59
2023-05-14T21:01:09.580Z,101764.66
2023-05-14T21:03:36.408Z,101761.84
2023-05-14T21:06:04.098Z,101766.53
2023-05-14T21:08:32.980Z,101764.84
2023-05-14T21:10:59.452Z,101752.72
2023-05-14T21:13:25.955Z,101747.47
2023-05-14T21:15:52.489Z,101755.25
2023-05-14T21:18:19.000Z,101748.44
2023-05-14T21:20:45.534Z,101755.72
2023-05-14T21:23:12.730Z,101753.38
2023-05-14T21:25:39.249Z,101763.22
2023-05-14T21:28:05.671Z,101769.75
2023-05-14T21:30:32.215Z,101769.84
2023-05-14T21:32:58.786Z,101763.25
2023-05-14T21:35:25.603Z,101764.44
2023-05-14T21:37:52.280Z,101766.22
2023-05-14T21:40:18.773Z,101760.50
2023-05-14T21:42:45.335Z,101753.81
2023-05-14T21:45:11.776Z,101754.84
2023-05-14T21:47:38.669Z,101745.28
2023-05-14T21:50:05.959Z,101747.06
2023-05-14T21:52:32.443Z,101740.97
2023-05-14T21:54:58.865Z,101750.97
2023-05-14T21:57:28.189Z,101748.63
2023-05-14T21:59:55.155Z,101748.09
2023-05-14T22:02:21.690Z,101743.75
2023-05-14T22:04:48.265Z,101747.59
2023-05-14T22:07:14.701Z,101749.53
2023-05-14T22:09:41.512Z,101746.25
2023-05-14T22:12:08.937Z,101738.78
2023-05-14T22:14:35.407Z,101736.84
2023-05-14T22:17:01.944Z,101733.38
2023-05-14T22:19:28.571Z,101733.38
2023-05-14T22:21:55.079Z,101723.94
2023-05-14T22:24:21.718Z,101738.72
2023-05-14T22:26:48.175Z,101737.88
2023-05-14T22:29:14.595Z,101732.81
2023-05-14T22:31:41.254Z,101732.03
2023-05-14T22:34:08.085Z,101727.97
2023-05-14T22:36:34.674Z,101723.75
2023-05-14T22:39:01.154Z,101730.78
2023-05-14T22:41:27.756Z,101725.78
2023-05-14T22:43:54.190Z,101727.66
2023-05-14T22:46:21.129Z,101721.81
2023-05-14T22:48:49.161Z,101714.97
2023-05-14T22:51:16.282Z,101712.44
2023-05-14T22:53:42.708Z,101711.94
2023-05-14T22:56:09.177Z,101707.84
2023-05-14T22:58:35.707Z,101711.59
2023-05-14T23:01:03.798Z,101709.81
2023-05-14T23:03:30.460Z,101700.09
2023-05-14T23:05:56.898Z,101696.53
2023-05-14T23:08:23.337Z,101701.78
2023-05-14T23:10:49.780Z,101691.56
2023-05-14T23:13:17.079Z,101694.50
2023-05-14T23:15:44.054Z,101698.97
2023-05-14T23:18:10.847Z,101706.25
2023-05-14T23:20:37.451Z,101698.56
2023-05-14T23:23:03.916Z,101701.34
2023-05-14T23:25:31.962Z,101694.22
2023-05-14T23:27:58.494Z,101689.94
2023-05-14T23:30:24.946Z,101689.09
2023-05-14T23:32:51.537Z,101684.78
2023-05-14T23:35:18.164Z,101678.88
2023-05-14T23:37:47.234Z,101673.81
2023-05-14T23:40:14.205Z,101673.63
2023-05-14T23:42:40.694Z,101665.78
2023-05-14T23:45:07.777Z,101664.00
2023-05-14T23:47:34.612Z,101666.63
2023-05-14T23:50:01.167Z,101657.09
2023-05-14T23:52:27.612Z,101649.25
2023-05-14T23:54:54.218Z,101645.84
2023-05-14T23:57:20.966Z,101647.69
2023-05-14T23:59:47.454Z,101652.09
